Terminal Aerodrome Forecast
Issued by NWS Paducah, KY

Home | Current Version | Previous Version | Text Only | Print | Product List | Glossary On
Versions: 1 2 3 4 5 6 7 8 9 10 11 12 13 14 15 16 17 18 19 20 21 22 23 24 25 26 27
988
FTUS43 KPAH 132028 AAA
TAFEVV
TAF AMD
KEVV 132028Z 1320/1418 06008KT 2SM -RA BR OVC008
      TEMPO 1321/1324 4SM -DZ BR SCT008 OVC028
     FM140000 05006KT 4SM -DZ BR OVC012
     FM140300 06005KT 3SM -DZ BR OVC008
     FM141200 VRB03KT 2SM -RA BR OVC003=

USA.gov is the U.S. government's official web portal to all federal, state and local government web resources and services.